Lipetsk, Russia
Current Conditions -  °F | °C
As of 4:00 PM on Friday 24 Oct 2014 (Local Time) from UUOO Reporting Station
Clear Clear  
Wind Chill: 21°   Ceiling: Unl
Heat Index: 30°   Visibility: 6mi
Dew Point: 14°   Wind: 11mph
Humidity: 51%   Direction: 10°N
Pressure: 30.45"   Gusts: 18mph
Location:  52.62°N, 39.62°E
Report Text: UUOO 241300Z 01005G08MPS CAVOK M01/M10 Q1031 NOSIG RMK30090070
Loading
Personal Weather Stations






























Interactive Weather Map
Tropical Storm Tracking
New forecast layout! Learn more

10-Day Weather Forecast

Advertisements
Track Severe Weather on mobile